Time;durP1;ratioP1;P1;durP2;ratioP2;P2;SDS_P1;SDS_P2;PMS_P1;PMS_P2;Temp;Humidity;BMP_temperature;BMP_pressure;BME280_temperature;BME280_humidity;BME280_pressure;Samples;Min_cycle;Max_cycle;Signal;HPM_P1;HPM_P2
2021/06/12 00:00:32;;;;;;;8.20;7.43;;;15.90;90.40;;;;;;5099424;28;20297;-86
2021/06/12 00:03:17;;;;;;;13.73;7.30;;;16.00;90.30;;;;;;5099731;28;20231;-84
2021/06/12 00:05:45;;;;;;;9.37;6.83;;;16.00;90.20;;;;;;5104140;28;20616;-84
2021/06/12 00:08:17;;;;;;;8.13;7.30;;;16.00;90.20;;;;;;5096514;28;20218;-84
2021/06/12 00:10:45;;;;;;;7.67;6.60;;;16.00;90.20;;;;;;5099492;28;20207;-86
2021/06/12 00:13:14;;;;;;;8.90;6.87;;;16.00;90.20;;;;;;5096872;28;20370;-84
2021/06/12 00:15:45;;;;;;;8.50;6.80;;;16.00;90.30;;;;;;5099548;28;20201;-87
2021/06/12 00:18:14;;;;;;;8.43;7.10;;;16.00;90.30;;;;;;5100890;28;20264;-84
2021/06/12 00:20:43;;;;;;;7.20;6.47;;;15.90;90.30;;;;;;5097250;28;20200;-87
2021/06/12 00:23:12;;;;;;;8.20;7.23;;;15.80;90.60;;;;;;5101227;28;20207;-86
2021/06/12 00:25:41;;;;;;;7.33;6.43;;;15.80;90.60;;;;;;5098833;28;20217;-85
2021/06/12 00:28:10;;;;;;;9.70;7.03;;;15.80;90.50;;;;;;5098637;28;20207;-87
2021/06/12 00:30:39;;;;;;;8.53;7.70;;;15.80;90.50;;;;;;5102926;28;20224;-88
2021/06/12 00:33:09;;;;;;;8.90;6.97;;;15.70;90.50;;;;;;5095828;28;20606;-85
2021/06/12 00:35:38;;;;;;;8.40;7.50;;;15.70;90.70;;;;;;5099566;28;20224;-85
2021/06/12 00:38:08;;;;;;;9.47;7.80;;;15.70;90.80;;;;;;5093360;28;20208;-86
2021/06/12 00:40:37;;;;;;;10.00;7.60;;;15.60;90.70;;;;;;5095826;28;20210;-84
2021/06/12 00:43:06;;;;;;;9.20;8.23;;;15.50;90.70;;;;;;5092947;28;20683;-84
2021/06/12 00:45:35;;;;;;;10.07;8.70;;;15.40;91.00;;;;;;5092784;28;20879;-85
2021/06/12 00:48:04;;;;;;;9.33;8.23;;;15.50;91.40;;;;;;5087609;28;20876;-85
2021/06/12 00:50:34;;;;;;;8.33;7.27;;;15.60;91.30;;;;;;5092970;28;20212;-85
2021/06/12 00:53:07;;;;;;;10.00;8.30;;;15.50;91.10;;;;;;5081157;28;20207;-86
2021/06/12 00:55:36;;;;;;;10.67;8.30;;;15.40;91.10;;;;;;5081036;28;20266;-84
2021/06/12 00:58:06;;;;;;;13.73;9.00;;;15.30;91.50;;;;;;5080177;28;20665;-86
2021/06/12 01:00:34;;;;;;;8.37;7.47;;;15.20;91.70;;;;;;5106832;28;20195;-86
2021/06/12 01:03:03;;;;;;;9.87;8.90;;;15.10;91.60;;;;;;5098664;28;20208;-87
2021/06/12 01:05:31;;;;;;;10.80;8.87;;;15.00;91.80;;;;;;5106729;28;20214;-87
2021/06/12 01:08:02;;;;;;;10.40;8.60;;;15.00;92.40;;;;;;5100449;28;20227;-84
2021/06/12 01:10:30;;;;;;;10.73;8.17;;;14.90;92.40;;;;;;5091045;28;20207;-88
2021/06/12 01:13:10;;;;;;;9.43;8.47;;;14.80;92.40;;;;;;5089613;28;20200;-85
2021/06/12 01:15:50;;;;;;;9.33;8.53;;;14.60;92.60;;;;;;5087079;28;20203;-86
2021/06/12 01:18:26;;;;;;;10.77;9.00;;;14.50;93.10;;;;;;5090133;28;20211;-85
2021/06/12 01:21:18;;;;;;;12.47;9.17;;;14.50;93.40;;;;;;5086077;28;20196;-86
2021/06/12 01:24:29;;;;;;;10.70;8.80;;;14.40;93.70;;;;;;5089858;28;21611;-86
2021/06/12 01:27:36;;;;;;;13.23;8.83;;;14.40;94.00;;;;;;5072386;28;20209;-86
2021/06/12 01:30:10;;;;;;;9.60;8.27;;;14.40;94.10;;;;;;5083795;28;20215;-87
2021/06/12 01:32:41;;;;;;;10.43;9.10;;;14.30;94.00;;;;;;5082067;28;20224;-85
2021/06/12 01:35:25;;;;;;;10.23;8.80;;;14.20;94.30;;;;;;5094810;28;20229;-87
2021/06/12 01:37:56;;;;;;;10.43;9.30;;;14.10;94.20;;;;;;5087638;28;20600;-86
2021/06/12 01:40:28;;;;;;;11.03;9.40;;;14.10;94.90;;;;;;5087292;28;20357;-86
2021/06/12 01:42:58;;;;;;;10.70;9.60;;;14.00;95.10;;;;;;5091799;28;20200;-86
2021/06/12 01:45:29;;;;;;;12.27;9.17;;;14.00;95.20;;;;;;5092700;28;20208;-86
2021/06/12 01:47:59;;;;;;;10.67;9.53;;;14.00;95.50;;;;;;5098967;28;20201;-87
2021/06/12 01:50:30;;;;;;;12.27;10.23;;;14.00;95.50;;;;;;5106752;28;20216;-85
2021/06/12 01:52:59;;;;;;;12.40;11.10;;;14.00;95.90;;;;;;5108562;28;20414;-86
2021/06/12 01:55:31;;;;;;;10.23;9.00;;;14.00;96.20;;;;;;5110066;28;20239;-85
2021/06/12 01:58:02;;;;;;;10.90;9.57;;;14.00;96.10;;;;;;5110232;27;20188;-85
2021/06/12 02:00:32;;;;;;;12.23;9.97;;;14.00;96.10;;;;;;5112959;27;20185;-84
2021/06/12 02:03:02;;;;;;;11.43;10.20;;;14.00;96.30;;;;;;5099446;28;20222;-87
2021/06/12 02:05:33;;;;;;;10.23;9.23;;;14.00;96.20;;;;;;5104278;28;20195;-85
2021/06/12 02:08:03;;;;;;;13.53;12.13;;;14.00;96.10;;;;;;5109963;28;20260;-84
2021/06/12 02:10:33;;;;;;;17.77;13.40;;;13.90;96.30;;;;;;5109324;28;20263;-85
2021/06/12 02:13:02;;;;;;;15.83;13.43;;;14.00;96.70;;;;;;5108922;28;20530;-85
2021/06/12 02:15:33;;;;;;;15.93;12.97;;;13.90;96.60;;;;;;5107745;28;20216;-86
2021/06/12 02:18:04;;;;;;;14.10;12.10;;;13.90;96.90;;;;;;5110644;28;20296;-85
2021/06/12 02:20:35;;;;;;;14.57;11.47;;;13.90;96.70;;;;;;5111437;28;20204;-87
2021/06/12 02:23:06;;;;;;;12.53;11.23;;;13.90;97.00;;;;;;5110129;27;20252;-86
2021/06/12 02:25:35;;;;;;;12.23;10.73;;;14.00;97.00;;;;;;5105344;28;20189;-86
2021/06/12 02:28:07;;;;;;;12.33;9.80;;;14.10;96.80;;;;;;5113463;28;20688;-86
2021/06/12 02:30:42;;;;;;;11.90;9.93;;;14.10;96.60;;;;;;5112715;28;20200;-86
2021/06/12 02:33:14;;;;;;;11.73;9.90;;;14.20;96.40;;;;;;5103999;28;20295;-86
2021/06/12 02:35:43;;;;;;;11.90;9.67;;;14.20;96.10;;;;;;5098076;28;20233;-85
2021/06/12 02:38:11;;;;;;;10.00;9.00;;;14.20;95.90;;;;;;5096283;28;20204;-85
2021/06/12 02:40:40;;;;;;;11.93;10.27;;;14.30;95.80;;;;;;5098035;28;20216;-85
2021/06/12 02:43:09;;;;;;;11.63;9.77;;;14.30;95.70;;;;;;5096291;28;20213;-85
2021/06/12 02:45:41;;;;;;;10.60;9.50;;;14.40;95.50;;;;;;5100765;28;20210;-85
2021/06/12 02:48:14;;;;;;;10.47;9.40;;;14.50;95.30;;;;;;5098882;28;20208;-86
2021/06/12 02:50:45;;;;;;;11.57;9.23;;;14.60;95.00;;;;;;5095051;28;20208;-84
2021/06/12 02:53:16;;;;;;;10.77;9.77;;;14.60;94.80;;;;;;5106272;28;20204;-86
2021/06/12 02:55:49;;;;;;;15.40;9.87;;;14.60;94.80;;;;;;5103083;28;20217;-85
2021/06/12 02:58:24;;;;;;;11.30;9.87;;;14.70;94.80;;;;;;5086954;28;20299;-87
2021/06/12 03:00:56;;;;;;;11.20;9.10;;;14.90;94.20;;;;;;5093757;28;20212;-85
2021/06/12 03:03:27;;;;;;;12.50;9.63;;;15.10;93.50;;;;;;5095508;28;20622;-87
2021/06/12 03:05:59;;;;;;;10.07;9.07;;;15.30;92.40;;;;;;5100809;28;20214;-85
2021/06/12 03:08:33;;;;;;;10.73;8.90;;;15.50;92.00;;;;;;5097597;28;20268;-85
2021/06/12 03:11:04;;;;;;;12.83;9.40;;;15.70;91.70;;;;;;5098711;28;20238;-85
2021/06/12 03:13:33;;;;;;;10.83;9.30;;;15.80;91.10;;;;;;5097202;28;20256;-87
2021/06/12 03:16:06;;;;;;;15.40;9.40;;;16.00;90.50;;;;;;5100010;28;20225;-85
2021/06/12 03:18:36;;;;;;;10.80;9.70;;;16.10;90.20;;;;;;5097273;28;20210;-87
2021/06/12 03:21:07;;;;;;;10.20;9.10;;;16.20;90.00;;;;;;5099857;28;20207;-86
2021/06/12 03:23:36;;;;;;;10.47;9.47;;;16.20;89.70;;;;;;5091717;28;20211;-85
2021/06/12 03:26:05;;;;;;;10.97;9.27;;;16.30;89.50;;;;;;5098393;28;20198;-85
2021/06/12 03:28:34;;;;;;;10.17;9.10;;;16.30;89.20;;;;;;5095755;28;20208;-82
2021/06/12 03:31:05;;;;;;;11.00;9.87;;;16.40;89.30;;;;;;5114175;28;20196;-85
2021/06/12 03:33:34;;;;;;;10.40;9.40;;;16.40;89.10;;;;;;5109233;28;20208;-85
2021/06/12 03:36:04;;;;;;;10.37;8.93;;;16.50;88.90;;;;;;5104741;28;20225;-86
2021/06/12 03:38:35;;;;;;;11.10;9.50;;;16.50;88.80;;;;;;5109823;28;20199;-84
2021/06/12 03:41:06;;;;;;;10.10;9.00;;;16.60;88.70;;;;;;5099496;28;20224;-86
2021/06/12 03:43:36;;;;;;;10.70;9.70;;;16.60;88.60;;;;;;5098537;28;20718;-85
2021/06/12 03:46:09;;;;;;;10.53;9.43;;;16.70;88.60;;;;;;5106433;28;20211;-86
2021/06/12 03:48:38;;;;;;;11.93;9.83;;;16.90;88.40;;;;;;5101987;28;20197;-85
2021/06/12 03:51:10;;;;;;;11.17;9.80;;;17.00;88.10;;;;;;5106300;28;20204;-86
2021/06/12 03:53:47;;;;;;;10.17;9.00;;;17.00;87.60;;;;;;5095128;28;20216;-84
2021/06/12 03:56:18;;;;;;;10.07;8.73;;;17.30;87.30;;;;;;5098587;28;20250;-86
2021/06/12 03:58:49;;;;;;;11.33;9.03;;;17.40;87.40;;;;;;5091215;28;20422;-84
2021/06/12 04:01:21;;;;;;;9.93;8.93;;;17.60;87.60;;;;;;5098455;28;20208;-84
2021/06/12 04:03:54;;;;;;;10.10;9.10;;;17.60;86.80;;;;;;5095585;28;20205;-87
2021/06/12 04:06:23;;;;;;;11.03;9.50;;;17.60;86.80;;;;;;5099283;28;20302;-87
2021/06/12 04:08:51;;;;;;;10.37;9.30;;;17.50;86.90;;;;;;5107412;28;20198;-86
2021/06/12 04:11:22;;;;;;;9.73;8.73;;;17.40;86.80;;;;;;5108474;28;20201;-85
2021/06/12 04:13:51;;;;;;;9.70;8.70;;;17.50;87.10;;;;;;5096618;28;20646;-85
2021/06/12 04:16:21;;;;;;;11.47;8.73;;;17.50;86.90;;;;;;5100047;28;20220;-85
2021/06/12 04:18:55;;;;;;;9.60;8.70;;;17.60;86.60;;;;;;5105592;28;20299;-85
2021/06/12 04:21:24;;;;;;;10.47;8.87;;;17.70;86.60;;;;;;5108163;28;20264;-86
2021/06/12 04:23:52;;;;;;;11.37;8.53;;;17.90;86.40;;;;;;5100806;28;20216;-84
2021/06/12 04:26:21;;;;;;;10.33;8.67;;;18.10;85.60;;;;;;5103701;28;20571;-87
2021/06/12 04:28:50;;;;;;;12.87;11.07;;;18.30;85.50;;;;;;5092205;27;20228;-84
2021/06/12 04:31:18;;;;;;;13.10;11.80;;;18.30;85.10;;;;;;5103881;28;20188;-84
2021/06/12 04:33:48;;;;;;;16.17;12.63;;;18.40;85.10;;;;;;5106759;28;20199;-85
2021/06/12 04:36:17;;;;;;;13.20;10.97;;;18.50;85.40;;;;;;5109926;27;20569;-85
2021/06/12 04:38:48;;;;;;;13.40;10.70;;;18.60;85.20;;;;;;5093393;28;20204;-85
2021/06/12 04:41:16;;;;;;;10.83;9.73;;;18.80;85.00;;;;;;5093950;28;20219;-83
2021/06/12 04:43:48;;;;;;;11.03;9.93;;;18.90;85.10;;;;;;5089456;28;20245;-84
2021/06/12 04:46:16;;;;;;;10.63;9.53;;;19.20;85.00;;;;;;5092190;27;20212;-84
2021/06/12 04:48:45;;;;;;;11.27;9.90;;;19.30;84.30;;;;;;5085297;28;20253;-85
2021/06/12 04:51:15;;;;;;;11.87;10.03;;;19.40;84.10;;;;;;5087637;28;20616;-86
2021/06/12 04:53:43;;;;;;;10.93;9.90;;;19.50;84.00;;;;;;5084693;28;20204;-85
2021/06/12 04:56:12;;;;;;;10.93;9.83;;;19.60;83.90;;;;;;5090991;28;20693;-86
2021/06/12 04:58:40;;;;;;;11.53;9.83;;;19.50;84.10;;;;;;5090347;28;20246;-86
2021/06/12 05:01:08;;;;;;;10.60;9.57;;;19.40;84.30;;;;;;5088422;28;20532;-88
2021/06/12 05:04:36;;;;;;;11.20;10.10;;;19.40;84.30;;;;;;5092538;28;20218;-84
2021/06/12 05:07:06;;;;;;;11.87;10.60;;;19.40;84.30;;;;;;5083759;28;20290;-83
2021/06/12 05:09:35;;;;;;;11.97;10.77;;;19.40;84.40;;;;;;5093368;28;20199;-84
2021/06/12 05:12:04;;;;;;;11.27;9.60;;;19.40;84.40;;;;;;5097853;28;20646;-84
2021/06/12 05:14:32;;;;;;;10.90;9.90;;;19.50;84.50;;;;;;5080030;28;20305;-86
2021/06/12 05:17:04;;;;;;;12.40;10.87;;;19.60;84.20;;;;;;5080763;28;20201;-83
2021/06/12 05:19:32;;;;;;;11.57;10.53;;;19.70;84.30;;;;;;5077818;28;20197;-86
2021/06/12 05:22:02;;;;;;;11.33;10.20;;;19.80;84.20;;;;;;5078988;28;20257;-86
2021/06/12 05:24:31;;;;;;;11.43;10.10;;;19.80;84.30;;;;;;5087636;28;20690;-85
2021/06/12 05:27:00;;;;;;;11.87;10.67;;;20.00;84.30;;;;;;5093200;28;20205;-85
2021/06/12 05:29:33;;;;;;;11.13;9.93;;;20.20;84.20;;;;;;5088939;28;20220;-85
2021/06/12 05:32:01;;;;;;;11.67;10.40;;;20.50;83.80;;;;;;5087031;28;20204;-84
2021/06/12 05:34:30;;;;;;;13.43;10.37;;;20.70;83.60;;;;;;5094163;28;20709;-84
2021/06/12 05:37:01;;;;;;;10.87;9.77;;;20.90;83.20;;;;;;5083407;28;20225;-85
2021/06/12 05:39:30;;;;;;;10.17;9.13;;;21.20;83.30;;;;;;5084983;28;20220;-85
2021/06/12 05:41:59;;;;;;;10.37;9.27;;;21.50;82.80;;;;;;5082653;28;21001;-87
2021/06/12 05:44:31;;;;;;;11.13;9.13;;;21.80;82.60;;;;;;5085866;28;20268;-85
2021/06/12 05:46:59;;;;;;;11.93;8.75;;;21.90;82.30;;;;;;5083542;28;20227;-85
2021/06/12 05:49:29;;;;;;;10.15;9.15;;;22.10;82.10;;;;;;5087837;28;20240;-85
2021/06/12 05:51:58;;;;;;;10.52;9.43;;;22.20;81.90;;;;;;5084968;28;21716;-85
2021/06/12 05:54:27;;;;;;;11.43;8.82;;;22.20;81.90;;;;;;5075009;28;20224;-84
2021/06/12 05:56:58;;;;;;;9.27;8.38;;;22.20;81.80;;;;;;5078027;28;20252;-86
2021/06/12 05:59:26;;;;;;;11.20;8.82;;;22.20;82.00;;;;;;5093018;28;20201;-84
2021/06/12 06:01:57;;;;;;;10.18;8.32;;;22.30;81.90;;;;;;5087400;28;20205;-86
2021/06/12 06:04:26;;;;;;;10.65;7.55;;;22.50;81.80;;;;;;5091948;28;20298;-86
2021/06/12 06:06:54;;;;;;;8.93;7.65;;;22.70;81.20;;;;;;5091130;28;20205;-85
2021/06/12 06:09:23;;;;;;;10.27;7.50;;;22.70;81.20;;;;;;5081644;28;20220;-86
2021/06/12 06:11:51;;;;;;;8.52;6.47;;;22.70;80.90;;;;;;5088981;28;20215;-84
2021/06/12 06:14:21;;;;;;;9.98;6.65;;;22.90;80.90;;;;;;5086862;28;20294;-84
2021/06/12 06:16:49;;;;;;;8.52;7.38;;;23.00;81.00;;;;;;5083990;28;20224;-84
2021/06/12 06:19:18;;;;;;;8.13;7.47;;;23.20;80.70;;;;;;5077934;28;20398;-86
2021/06/12 06:21:46;;;;;;;7.53;6.93;;;23.30;80.40;;;;;;5086056;28;20479;-84
2021/06/12 06:24:15;;;;;;;7.60;6.80;;;23.30;80.50;;;;;;5084229;28;20568;-85
2021/06/12 06:26:43;;;;;;;7.47;6.80;;;23.40;80.60;;;;;;5085906;28;20212;-86
2021/06/12 06:29:11;;;;;;;8.35;6.45;;;23.40;79.80;;;;;;5088666;28;20264;-84
2021/06/12 06:31:42;;;;;;;7.93;7.13;;;23.30;79.80;;;;;;5083178;28;20201;-83
2021/06/12 06:34:11;;;;;;;6.82;6.32;;;23.00;80.00;;;;;;5085705;28;20258;-83
2021/06/12 06:36:40;;;;;;;7.53;6.63;;;22.80;80.30;;;;;;5093389;28;20232;-82
2021/06/12 06:39:08;;;;;;;8.85;6.20;;;22.90;80.40;;;;;;5088483;28;20300;-84
2021/06/12 06:41:37;;;;;;;7.13;6.22;;;22.90;80.30;;;;;;5083856;28;20215;-85
2021/06/12 06:44:06;;;;;;;7.00;6.30;;;23.20;80.30;;;;;;5077219;28;20205;-84
2021/06/12 06:46:35;;;;;;;6.45;5.55;;;23.60;80.10;;;;;;5079387;28;20213;-84
2021/06/12 06:49:05;;;;;;;7.40;6.20;;;23.80;79.90;;;;;;5081702;28;20586;-85
2021/06/12 06:51:33;;;;;;;6.72;5.95;;;24.00;79.10;;;;;;5090473;28;20683;-85
2021/06/12 06:54:02;;;;;;;7.00;6.18;;;24.20;78.90;;;;;;5081090;28;20677;-83
2021/06/12 06:56:31;;;;;;;7.03;6.20;;;24.10;78.80;;;;;;5067601;28;20241;-83
2021/06/12 06:59:00;;;;;;;9.85;6.07;;;23.90;78.90;;;;;;5079738;28;20223;-85
2021/06/12 07:01:29;;;;;;;7.18;6.00;;;23.80;78.80;;;;;;5073797;28;20229;-84
2021/06/12 07:03:58;;;;;;;7.97;5.97;;;23.90;79.00;;;;;;5083487;28;20215;-87
2021/06/12 07:06:28;;;;;;;6.88;6.05;;;24.00;78.40;;;;;;5093983;28;20872;-84
2021/06/12 07:08:56;;;;;;;8.15;6.43;;;24.20;78.40;;;;;;5100456;28;20316;-85
2021/06/12 07:11:27;;;;;;;6.35;5.43;;;24.60;78.60;;;;;;5085359;28;20208;-86
2021/06/12 07:13:57;;;;;;;7.68;6.30;;;25.00;78.00;;;;;;5073757;28;20306;-86
2021/06/12 07:16:26;;;;;;;6.85;6.18;;;25.00;77.20;;;;;;5071285;28;20363;-83
2021/06/12 07:18:55;;;;;;;6.93;5.55;;;24.80;76.80;;;;;;5074608;28;20255;-85
2021/06/12 07:21:23;;;;;;;6.53;5.93;;;24.50;76.80;;;;;;5068499;28;20278;-86
2021/06/12 07:23:54;;;;;;;6.35;5.80;;;24.40;77.00;;;;;;5072733;28;20201;-85
2021/06/12 07:26:23;;;;;;;6.75;6.05;;;24.30;77.10;;;;;;5070312;28;20209;-85
2021/06/12 07:28:51;;;;;;;6.35;5.85;;;24.30;77.70;;;;;;5069641;28;20213;-86
2021/06/12 07:31:36;;;;;;;7.43;5.90;;;24.40;77.80;;;;;;5069177;28;20677;-83
2021/06/12 07:34:05;;;;;;;6.32;5.55;;;24.50;77.80;;;;;;5073108;28;20212;-83
2021/06/12 07:36:33;;;;;;;6.72;6.13;;;24.90;77.60;;;;;;5072857;28;20237;-84
2021/06/12 07:39:04;;;;;;;6.03;5.45;;;25.10;77.00;;;;;;5071044;28;20212;-86
2021/06/12 07:41:33;;;;;;;6.05;5.50;;;25.20;76.50;;;;;;5071881;28;20910;-85
2021/06/12 07:44:02;;;;;;;5.70;5.25;;;25.30;76.10;;;;;;5068056;28;20201;-83
2021/06/12 07:46:31;;;;;;;6.22;5.13;;;25.40;75.80;;;;;;5076832;28;20213;-84
2021/06/12 07:49:00;;;;;;;5.72;4.53;;;25.50;75.40;;;;;;5090457;28;20184;-85
2021/06/12 07:51:32;;;;;;;5.22;4.72;;;25.60;75.80;;;;;;5088480;28;20201;-84
2021/06/12 07:54:02;;;;;;;4.78;4.38;;;25.80;74.20;;;;;;5100147;28;20208;-87
2021/06/12 07:56:36;;;;;;;5.25;4.32;;;25.90;74.70;;;;;;5092874;28;20224;-87
2021/06/12 07:59:05;;;;;;;5.05;4.65;;;26.00;73.10;;;;;;5088559;28;20212;-84
2021/06/12 08:01:34;;;;;;;5.63;5.03;;;26.10;73.40;;;;;;5094311;28;20197;-86
2021/06/12 08:04:03;;;;;;;5.50;5.00;;;26.20;73.50;;;;;;5088671;28;20871;-87
2021/06/12 08:06:31;;;;;;;6.13;5.63;;;26.30;73.30;;;;;;5096281;28;20414;-86
2021/06/12 08:09:00;;;;;;;5.93;5.25;;;26.40;72.80;;;;;;5092119;28;20222;-85
2021/06/12 08:11:31;;;;;;;5.88;5.38;;;26.40;72.60;;;;;;5088174;28;20209;-85
2021/06/12 08:14:00;;;;;;;7.43;6.45;;;26.20;72.50;;;;;;5076274;28;20303;-85
2021/06/12 08:16:28;;;;;;;6.18;5.68;;;26.00;72.80;;;;;;5073926;28;20236;-86
2021/06/12 08:18:57;;;;;;;6.43;5.93;;;25.90;73.20;;;;;;5078724;28;20213;-85
2021/06/12 08:21:25;;;;;;;7.18;6.47;;;26.10;73.60;;;;;;5076524;28;20326;-84
2021/06/12 08:23:54;;;;;;;6.90;6.13;;;26.30;73.40;;;;;;5080637;28;20201;-84
2021/06/12 08:26:23;;;;;;;6.47;5.90;;;26.50;73.00;;;;;;5074668;28;20662;-83
2021/06/12 08:28:54;;;;;;;6.05;5.55;;;26.50;72.00;;;;;;5088053;28;20200;-84
2021/06/12 08:31:22;;;;;;;4.88;4.47;;;26.40;71.70;;;;;;5095864;28;20219;-84
2021/06/12 08:33:51;;;;;;;5.95;5.40;;;26.50;72.40;;;;;;5079609;28;20288;-81
2021/06/12 08:36:19;;;;;;;6.85;5.35;;;26.50;72.10;;;;;;5084717;28;20236;-84
2021/06/12 08:38:48;;;;;;;5.95;5.45;;;26.50;72.10;;;;;;5079332;28;20334;-84
2021/06/12 08:41:17;;;;;;;5.85;5.35;;;26.40;70.90;;;;;;5083670;28;20217;-86
2021/06/12 08:43:46;;;;;;;5.97;5.47;;;25.90;71.00;;;;;;5081673;28;20213;-84
2021/06/12 08:46:31;;;;;;;6.53;5.95;;;25.50;71.10;;;;;;5079833;28;20204;-85
2021/06/12 08:48:59;;;;;;;5.90;5.40;;;25.50;72.00;;;;;;5073418;28;20957;-85
2021/06/12 08:51:28;;;;;;;6.00;5.40;;;25.70;72.00;;;;;;5075210;28;20200;-84
2021/06/12 08:53:58;;;;;;;5.57;5.18;;;26.10;72.00;;;;;;5076855;28;20413;-84
2021/06/12 08:56:27;;;;;;;5.43;4.97;;;26.00;71.00;;;;;;5070492;28;20284;-85
2021/06/12 08:58:55;;;;;;;5.32;4.82;;;26.30;71.00;;;;;;5076118;28;20582;-85
2021/06/12 09:01:24;;;;;;;6.38;4.90;;;26.20;70.70;;;;;;5075955;28;20221;-85
2021/06/12 09:03:54;;;;;;;5.45;5.05;;;26.30;70.90;;;;;;5073151;28;20433;-82
2021/06/12 09:06:23;;;;;;;5.75;5.18;;;26.10;70.00;;;;;;5075119;28;20256;-84
2021/06/12 09:09:03;;;;;;;5.53;5.03;;;25.80;70.60;;;;;;5074095;28;20587;-86
2021/06/12 09:11:34;;;;;;;5.30;4.90;;;25.90;70.60;;;;;;5076125;28;20215;-85
2021/06/12 09:14:04;;;;;;;5.53;4.97;;;26.10;70.90;;;;;;5070197;28;20205;-86
2021/06/12 09:16:35;;;;;;;5.07;4.65;;;26.30;70.10;;;;;;5069571;28;20272;-85
2021/06/12 09:19:22;;;;;;;5.18;4.68;;;26.30;70.40;;;;;;5072665;28;20197;-83
2021/06/12 09:21:52;;;;;;;5.30;4.82;;;26.30;70.30;;;;;;5071997;28;20204;-83
2021/06/12 09:24:24;;;;;;;5.75;5.15;;;26.30;70.20;;;;;;5073042;28;20433;-84
2021/06/12 09:26:57;;;;;;;5.03;4.63;;;26.30;70.10;;;;;;5072464;28;20234;-85
2021/06/12 09:29:34;;;;;;;4.75;4.43;;;26.10;69.90;;;;;;5070910;28;20556;-87
2021/06/12 09:32:10;;;;;;;4.90;4.50;;;26.30;70.10;;;;;;5074249;28;20804;-86
2021/06/12 09:34:42;;;;;;;5.30;4.90;;;26.30;70.20;;;;;;5046888;28;20293;-86
2021/06/12 09:37:12;;;;;;;4.50;4.20;;;26.40;69.90;;;;;;5067166;28;20307;-83
2021/06/12 09:39:56;;;;;;;6.30;4.05;;;26.50;70.20;;;;;;5073016;28;20213;-86
2021/06/12 09:42:46;;;;;;;4.60;4.18;;;26.50;69.10;;;;;;5088491;28;20747;-84
2021/06/12 09:45:21;;;;;;;4.78;4.30;;;26.60;69.70;;;;;;5079737;28;20601;-83
2021/06/12 09:47:49;;;;;;;4.80;4.25;;;26.40;69.20;;;;;;5076589;28;20193;-82
2021/06/12 09:50:22;;;;;;;5.93;4.30;;;26.30;69.10;;;;;;5082188;28;20209;-83
2021/06/12 09:52:51;;;;;;;4.95;4.55;;;26.30;69.00;;;;;;5071216;28;20660;-85
2021/06/12 09:55:26;;;;;;;5.13;4.22;;;26.30;69.50;;;;;;5074985;28;20200;-84
2021/06/12 09:57:56;;;;;;;5.15;4.70;;;26.40;69.30;;;;;;5068228;28;20230;-85
2021/06/12 10:00:37;;;;;;;5.07;4.57;;;26.60;69.20;;;;;;5069766;28;20230;-83
2021/06/12 10:03:18;;;;;;;5.70;5.20;;;26.80;69.40;;;;;;5088989;28;20209;-84
2021/06/12 10:05:50;;;;;;;5.10;4.70;;;26.70;68.60;;;;;;5091552;28;20290;-87
2021/06/12 10:08:20;;;;;;;5.55;5.15;;;26.30;68.90;;;;;;5084753;28;20277;-87
2021/06/12 10:10:51;;;;;;;5.90;5.32;;;26.40;69.50;;;;;;5073369;28;20208;-84
2021/06/12 10:13:19;;;;;;;4.93;4.53;;;26.40;69.00;;;;;;5062736;28;20860;-85
2021/06/12 10:15:49;;;;;;;5.63;4.82;;;26.40;69.20;;;;;;5086651;28;20945;-84
2021/06/12 10:18:20;;;;;;;5.53;4.80;;;26.50;69.20;;;;;;5082677;28;20369;-83
2021/06/12 10:20:50;;;;;;;5.47;5.07;;;26.50;68.60;;;;;;5096817;28;20215;-82
2021/06/12 10:23:18;;;;;;;4.65;4.25;;;26.50;69.00;;;;;;5089365;28;20332;-86
2021/06/12 10:25:47;;;;;;;5.18;4.75;;;26.60;68.80;;;;;;5097870;28;20180;-85
2021/06/12 10:28:17;;;;;;;5.15;4.75;;;26.70;68.60;;;;;;5071154;28;20418;-84
2021/06/12 10:30:45;;;;;;;5.55;4.70;;;26.90;68.40;;;;;;5082669;28;20442;-84
2021/06/12 10:33:18;;;;;;;6.03;4.70;;;27.10;68.60;;;;;;5085583;28;20580;-86
2021/06/12 10:35:47;;;;;;;5.18;4.85;;;27.30;68.60;;;;;;5079787;28;20418;-86
2021/06/12 10:38:17;;;;;;;5.18;4.78;;;27.50;68.10;;;;;;5072622;28;20236;-84
2021/06/12 10:40:48;;;;;;;5.20;4.80;;;27.60;68.10;;;;;;5075128;28;20216;-86
2021/06/12 10:43:19;;;;;;;5.45;4.90;;;27.90;68.20;;;;;;5079501;28;20203;-84
2021/06/12 10:45:49;;;;;;;5.85;5.35;;;28.10;67.70;;;;;;5095773;28;20209;-87
2021/06/12 10:48:39;;;;;;;5.50;5.03;;;28.10;67.50;;;;;;5080691;28;20403;-84
2021/06/12 10:51:09;;;;;;;5.57;5.18;;;27.70;67.40;;;;;;5089815;28;20205;-87
2021/06/12 10:53:43;;;;;;;5.20;4.35;;;27.20;67.30;;;;;;5089610;28;20287;-83
2021/06/12 10:56:30;;;;;;;5.25;4.63;;;26.70;67.40;;;;;;5091570;28;21069;-86
2021/06/12 10:58:59;;;;;;;6.18;4.75;;;26.10;68.10;;;;;;5077525;28;20204;-87
2021/06/12 11:01:27;;;;;;;5.10;4.70;;;25.90;69.00;;;;;;5091090;28;20537;-84
2021/06/12 11:04:02;;;;;;;4.70;4.30;;;25.70;68.40;;;;;;5088710;28;20216;-83
2021/06/12 11:06:39;;;;;;;5.05;4.50;;;25.60;68.80;;;;;;5081158;28;20197;-86
2021/06/12 11:09:41;;;;;;;7.95;4.57;;;25.50;68.90;;;;;;5088584;28;20184;-83
2021/06/12 11:12:35;;;;;;;6.20;4.47;;;25.50;69.10;;;;;;5079799;28;20208;-86
2021/06/12 11:15:13;;;;;;;5.30;4.90;;;25.80;69.50;;;;;;5090874;28;20225;-85
2021/06/12 11:17:45;;;;;;;6.15;5.35;;;25.90;69.20;;;;;;5079813;28;20232;-83
2021/06/12 11:20:30;;;;;;;5.50;5.10;;;25.80;69.80;;;;;;5083093;28;20197;-86
2021/06/12 11:23:05;;;;;;;5.30;4.80;;;25.70;70.20;;;;;;5083277;28;20219;-87
2021/06/12 11:25:59;;;;;;;8.57;5.18;;;25.70;70.40;;;;;;5087622;28;20197;-85
2021/06/12 11:28:33;;;;;;;5.45;5.00;;;25.80;70.80;;;;;;5080229;28;20227;-87
2021/06/12 11:31:34;;;;;;;5.68;5.15;;;26.00;70.00;;;;;;5078444;28;20201;-85
2021/06/12 11:34:18;;;;;;;5.85;4.63;;;26.10;69.80;;;;;;5074557;28;20705;-85
2021/06/12 11:36:48;;;;;;;5.38;4.97;;;26.30;70.10;;;;;;5077966;28;20813;-83
2021/06/12 11:39:17;;;;;;;5.68;4.53;;;26.20;70.10;;;;;;5071184;28;20196;-84
2021/06/12 11:41:47;;;;;;;6.32;4.88;;;26.20;69.40;;;;;;5072823;28;20360;-85
2021/06/12 11:44:16;;;;;;;6.60;5.10;;;26.40;70.00;;;;;;5089485;28;20204;-85
2021/06/12 11:46:44;;;;;;;5.75;4.80;;;26.60;70.30;;;;;;5079930;28;20208;-87
2021/06/12 11:49:14;;;;;;;7.75;5.00;;;26.80;70.40;;;;;;5080220;28;20598;-86
2021/06/12 11:51:47;;;;;;;5.10;4.65;;;26.90;69.90;;;;;;5086034;28;20209;-86
2021/06/12 11:54:17;;;;;;;4.93;4.50;;;27.00;70.10;;;;;;5068158;28;20209;-83
2021/06/12 11:56:49;;;;;;;5.70;4.50;;;27.00;70.40;;;;;;5069598;28;20230;-85
2021/06/12 11:59:22;;;;;;;5.72;4.57;;;27.10;69.50;;;;;;5061099;28;20811;-85
2021/06/12 12:01:57;;;;;;;6.97;4.70;;;27.10;69.40;;;;;;5076005;28;20211;-85
2021/06/12 12:04:32;;;;;;;5.25;4.63;;;26.90;69.80;;;;;;5081517;28;20200;-87
2021/06/12 12:07:02;;;;;;;5.10;4.60;;;27.00;69.90;;;;;;5058896;28;20208;-85
2021/06/12 12:09:32;;;;;;;4.70;4.30;;;27.30;69.60;;;;;;5061406;28;21007;-85
2021/06/12 12:12:03;;;;;;;4.90;4.45;;;27.40;68.90;;;;;;5063925;28;20212;-83
2021/06/12 12:14:34;;;;;;;5.38;4.97;;;27.50;68.80;;;;;;5068865;28;20208;-84
2021/06/12 12:17:04;;;;;;;5.45;4.90;;;27.40;67.90;;;;;;5075078;28;20220;-86
2021/06/12 12:19:33;;;;;;;5.18;4.65;;;27.20;67.80;;;;;;5073637;28;20269;-84
2021/06/12 12:22:03;;;;;;;5.18;4.78;;;26.90;68.30;;;;;;5077920;28;20208;-84
2021/06/12 12:24:33;;;;;;;5.47;4.97;;;26.60;68.30;;;;;;5072911;28;20243;-82
2021/06/12 12:27:07;;;;;;;5.57;5.07;;;26.50;69.30;;;;;;5080710;28;20475;-87
2021/06/12 12:29:53;;;;;;;5.60;5.10;;;26.30;69.40;;;;;;4971197;28;20497;-84
2021/06/12 12:32:26;;;;;;;5.75;5.00;;;26.00;69.50;;;;;;4947181;28;20458;-83
2021/06/12 12:35:11;;;;;;;5.20;4.80;;;25.80;69.70;;;;;;4936534;28;20311;-87
2021/06/12 12:37:44;;;;;;;5.65;5.15;;;25.70;69.60;;;;;;5011323;28;20323;-85
2021/06/12 12:40:17;;;;;;;5.75;5.30;;;25.60;70.00;;;;;;5072633;28;20209;-86
2021/06/12 12:42:48;;;;;;;5.55;4.97;;;25.70;70.00;;;;;;5062717;28;20212;-81
2021/06/12 12:45:23;;;;;;;5.80;5.32;;;25.80;70.30;;;;;;5063730;28;20269;-83
2021/06/12 12:47:52;;;;;;;5.93;5.32;;;25.90;70.30;;;;;;5072748;28;20204;-85
2021/06/12 12:50:20;;;;;;;5.40;5.00;;;25.80;70.20;;;;;;5058468;28;21247;-84
2021/06/12 12:53:06;;;;;;;6.03;5.57;;;25.70;70.40;;;;;;5067099;28;20224;-85
2021/06/12 12:55:36;;;;;;;5.80;5.30;;;25.60;70.70;;;;;;5062728;28;20409;-84
2021/06/12 12:58:07;;;;;;;6.10;5.50;;;25.50;70.90;;;;;;5066715;28;20221;-83
2021/06/12 13:00:38;;;;;;;17.88;6.05;;;25.30;70.90;;;;;;5065193;28;21481;-84
2021/06/12 13:03:07;;;;;;;44.20;6.60;;;25.00;71.50;;;;;;5074106;28;20307;-85
2021/06/12 13:05:40;;;;;;;25.42;5.45;;;24.30;72.60;;;;;;5074805;28;20225;-84